sensor_id;sensor_type;location;lat;lon;timestamp;pressure;altitude;pressure_sealevel;temperature;humidity
48402;BME280;65988;52.422;16.746;2023-05-21T08:50:21;100414.34;;;38.49;27.78
48402;BME280;65988;52.422;16.746;2023-05-21T08:52:53;100312.69;;;37.48;27.91
48402;BME280;65988;52.422;16.746;2023-05-21T08:55:22;100396.44;;;37.86;28.63
48402;BME280;65988;52.422;16.746;2023-05-21T08:58:07;100462.47;;;39.14;28.03
48402;BME280;65988;52.422;16.746;2023-05-21T09:00:44;100508.34;;;39.02;28.90
48402;BME280;65988;52.422;16.746;2023-05-21T09:03:21;100429.94;;;38.47;28.36
48402;BME280;65988;52.422;16.746;2023-05-21T09:05:51;100433.25;;;37.98;28.65
48402;BME280;65988;52.422;16.746;2023-05-21T09:09:00;100589.47;;;39.21;28.77
48402;BME280;65988;52.422;16.746;2023-05-21T09:11:31;100379.06;;;37.04;29.27
48402;BME280;65988;52.422;16.746;2023-05-21T09:13:57;100387.22;;;36.77;29.61
48402;BME280;65988;52.422;16.746;2023-05-21T09:16:27;100337.69;;;37.30;29.01
48402;BME280;65988;52.422;16.746;2023-05-21T09:18:55;100355.75;;;37.55;28.43
48402;BME280;65988;52.422;16.746;2023-05-21T09:21:30;100369.94;;;37.76;28.23
48402;BME280;65988;52.422;16.746;2023-05-21T09:23:58;100476.81;;;37.70;28.73
48402;BME280;65988;52.422;16.746;2023-05-21T09:26:25;100266.25;;;36.17;28.83
48402;BME280;65988;52.422;16.746;2023-05-21T09:28:55;100278.00;;;36.36;28.92
48402;BME280;65988;52.422;16.746;2023-05-21T09:31:22;100317.81;;;37.82;28.13
48402;BME280;65988;52.422;16.746;2023-05-21T09:33:50;100505.47;;;38.03;29.48
48402;BME280;65988;52.422;16.746;2023-05-21T09:36:44;100450.75;;;38.65;29.16
48402;BME280;65988;52.422;16.746;2023-05-21T09:43:07;100449.44;;;38.49;28.39
48402;BME280;65988;52.422;16.746;2023-05-21T09:45:58;100505.03;;;38.57;28.21
48402;BME280;65988;52.422;16.746;2023-05-21T09:48:40;100321.31;;;36.87;28.67
48402;BME280;65988;52.422;16.746;2023-05-21T09:51:26;100512.44;;;38.68;27.99
48402;BME280;65988;52.422;16.746;2023-05-21T09:54:21;100478.00;;;38.38;28.42
48402;BME280;65988;52.422;16.746;2023-05-21T09:57:04;100251.75;;;37.66;27.69
48402;BME280;65988;52.422;16.746;2023-05-21T09:59:56;100482.59;;;38.81;28.70
48402;BME280;65988;52.422;16.746;2023-05-21T10:02:55;100515.78;;;40.05;27.39
48402;BME280;65988;52.422;16.746;2023-05-21T10:05:36;100405.47;;;38.85;27.58
48402;BME280;65988;52.422;16.746;2023-05-21T10:10:52;100239.97;;;38.41;27.70
48402;BME280;65988;52.422;16.746;2023-05-21T10:16:03;100442.63;;;37.96;28.74
48402;BME280;65988;52.422;16.746;2023-05-21T10:19:07;100307.78;;;37.64;28.30
48402;BME280;65988;52.422;16.746;2023-05-21T10:21:36;100360.84;;;38.39;28.50
48402;BME280;65988;52.422;16.746;2023-05-21T10:24:23;100219.72;;;37.26;27.99
48402;BME280;65988;52.422;16.746;2023-05-21T10:26:59;100381.69;;;38.76;27.50
48402;BME280;65988;52.422;16.746;2023-05-21T10:30:14;100208.44;;;38.84;26.74
48402;BME280;65988;52.422;16.746;2023-05-21T10:36:46;100338.91;;;39.33;26.71
48402;BME280;65988;52.422;16.746;2023-05-21T11:40:33;100244.56;;;39.79;26.25
48402;BME280;65988;52.422;16.746;2023-05-21T11:56:18;100197.84;;;39.36;25.95
48402;BME280;65988;52.422;16.746;2023-05-21T11:59:41;100230.41;;;39.77;25.64
48402;BME280;65988;52.422;16.746;2023-05-21T12:06:10;100190.44;;;39.20;25.90
48402;BME280;65988;52.422;16.746;2023-05-21T13:01:28;100097.13;;;39.29;25.58
48402;BME280;65988;52.422;16.746;2023-05-21T13:16:22;100059.59;;;38.62;25.21
48402;BME280;65988;52.422;16.746;2023-05-21T13:19:08;100211.31;;;39.96;25.00
48402;BME280;65988;52.422;16.746;2023-05-21T13:21:45;100202.75;;;39.87;25.16
48402;BME280;65988;52.422;16.746;2023-05-21T13:24:23;100284.94;;;40.33;25.77
48402;BME280;65988;52.422;16.746;2023-05-21T13:30:41;100267.13;;;39.85;25.12
48402;BME280;65988;52.422;16.746;2023-05-21T13:33:20;99979.03;;;38.59;25.30
48402;BME280;65988;52.422;16.746;2023-05-21T13:36:07;99988.34;;;38.09;25.59
48402;BME280;65988;52.422;16.746;2023-05-21T13:44:12;99969.72;;;37.28;26.44
48402;BME280;65988;52.422;16.746;2023-05-21T13:46:49;99947.16;;;36.41;27.09
48402;BME280;65988;52.422;16.746;2023-05-21T13:49:26;100161.00;;;37.35;27.35
48402;BME280;65988;52.422;16.746;2023-05-21T13:52:28;100181.44;;;37.42;27.41
48402;BME280;65988;52.422;16.746;2023-05-21T13:58:09;100198.22;;;38.86;26.23
48402;BME280;65988;52.422;16.746;2023-05-21T14:00:38;100264.09;;;39.69;25.97
48402;BME280;65988;52.422;16.746;2023-05-21T14:06:01;100184.16;;;38.54;26.20
48402;BME280;65988;52.422;16.746;2023-05-21T14:08:54;100339.09;;;40.33;26.11
48402;BME280;65988;52.422;16.746;2023-05-21T14:24:35;100250.63;;;41.43;24.80
48402;BME280;65988;52.422;16.746;2023-05-21T14:30:40;100135.97;;;38.81;25.82
48402;BME280;65988;52.422;16.746;2023-05-21T14:33:16;99983.19;;;37.28;26.83
48402;BME280;65988;52.422;16.746;2023-05-21T14:36:02;100096.75;;;39.02;26.01
48402;BME280;65988;52.422;16.746;2023-05-21T14:39:00;100176.69;;;39.33;26.19
48402;BME280;65988;52.422;16.746;2023-05-21T14:45:42;100252.31;;;39.76;26.31
48402;BME280;65988;52.422;16.746;2023-05-21T14:59:26;100043.84;;;38.47;25.60
